createdAt,value
2018-08-03T00:00:22.787Z,60.89
2018-08-03T00:02:50.843Z,60.95
2018-08-03T00:05:18.932Z,60.37
2018-08-03T00:07:46.975Z,60.05
2018-08-03T00:10:15.547Z,60.44
2018-08-03T00:12:44.043Z,60.10
2018-08-03T00:15:12.681Z,59.38
2018-08-03T00:17:41.163Z,59.88
2018-08-03T00:20:09.800Z,60.59
2018-08-03T00:22:38.318Z,60.05
2018-08-03T00:25:08.394Z,59.88
2018-08-03T00:27:37.355Z,59.56
2018-08-03T00:30:07.364Z,59.96
2018-08-03T00:32:36.507Z,59.93
2018-08-03T00:35:05.708Z,59.74
2018-08-03T00:37:35.196Z,59.82
2018-08-03T00:40:05.090Z,60.20
2018-08-03T00:42:35.832Z,59.86
2018-08-03T00:45:05.581Z,59.26
2018-08-03T00:47:35.428Z,59.56
2018-08-03T00:50:05.505Z,59.42
2018-08-03T00:55:24.758Z,60.31
2018-08-03T00:57:52.868Z,59.84
2018-08-03T01:00:20.977Z,60.65
2018-08-03T01:02:49.024Z,60.75
2018-08-03T01:05:17.084Z,60.33
2018-08-03T01:07:45.447Z,60.49
2018-08-03T01:10:13.495Z,60.20
2018-08-03T01:12:41.539Z,60.88
2018-08-03T01:15:09.584Z,59.92
2018-08-03T01:17:37.624Z,60.65
2018-08-03T01:20:05.763Z,60.16
2018-08-03T01:22:33.819Z,60.69
2018-08-03T01:25:01.867Z,60.56
2018-08-03T01:27:29.923Z,60.90
2018-08-03T01:29:57.996Z,60.62
2018-08-03T01:32:26.043Z,60.95
2018-08-03T01:34:54.103Z,61.47
2018-08-03T01:37:22.151Z,61.05
2018-08-03T01:39:50.315Z,61.56
2018-08-03T01:42:18.367Z,61.76
2018-08-03T01:44:46.428Z,61.30
2018-08-03T01:47:14.488Z,61.43
2018-08-03T01:49:42.543Z,61.06
2018-08-03T01:52:10.702Z,60.85
2018-08-03T01:54:38.792Z,62.16
2018-08-03T01:57:06.873Z,61.45
2018-08-03T01:59:35.964Z,61.85
2018-08-03T02:02:05.356Z,62.23
2018-08-03T02:04:35.307Z,62.00
2018-08-03T02:07:05.223Z,62.15
2018-08-03T02:09:34.678Z,62.50
2018-08-03T02:12:04.718Z,63.07
2018-08-03T02:14:34.689Z,62.83
2018-08-03T02:17:04.600Z,62.26
2018-08-03T02:19:34.338Z,63.39
2018-08-03T02:22:04.165Z,62.94
2018-08-03T02:24:33.918Z,63.69
2018-08-03T02:27:03.212Z,64.50
2018-08-03T02:29:32.700Z,64.12
2018-08-03T02:32:01.116Z,63.81
2018-08-03T02:34:29.163Z,64.68
2018-08-03T02:36:57.179Z,65.28
2018-08-03T02:39:25.313Z,65.19
2018-08-03T02:41:53.360Z,65.30
2018-08-03T02:44:21.392Z,65.55
2018-08-03T02:46:49.427Z,66.05
2018-08-03T02:49:17.459Z,65.88
2018-08-03T02:51:45.492Z,66.14
2018-08-03T02:54:13.543Z,66.23
2018-08-03T02:56:41.622Z,65.74
2018-08-03T02:59:09.715Z,66.70
2018-08-03T03:01:37.759Z,66.56
2018-08-03T03:04:05.912Z,65.97
2018-08-03T03:06:33.952Z,66.95
2018-08-03T03:09:02.004Z,67.16
2018-08-03T03:11:30.028Z,67.46
2018-08-03T03:13:58.376Z,67.16
2018-08-03T03:16:26.438Z,67.23
2018-08-03T03:18:54.475Z,67.96
2018-08-03T03:21:22.534Z,67.74
2018-08-03T03:23:50.551Z,68.82
2018-08-03T03:26:18.612Z,68.80
2018-08-03T03:28:46.653Z,69.08
2018-08-03T03:31:14.695Z,69.17
2018-08-03T03:33:42.773Z,69.50
2018-08-03T03:36:10.879Z,69.63
2018-08-03T03:38:38.924Z,69.39
2018-08-03T03:41:06.964Z,69.62
2018-08-03T03:43:35.031Z,69.45
2018-08-03T03:46:03.430Z,69.33
2018-08-03T03:48:31.457Z,69.09
2018-08-03T03:50:59.525Z,68.71
2018-08-03T03:53:27.508Z,68.86
2018-08-03T03:55:55.572Z,70.38
2018-08-03T03:58:23.591Z,69.83
2018-08-03T04:00:51.623Z,69.64
2018-08-03T04:03:19.668Z,70.33
2018-08-03T04:05:47.712Z,70.39
2018-08-03T04:08:15.747Z,70.25
2018-08-03T04:10:43.767Z,70.26
2018-08-03T04:13:11.950Z,69.86
2018-08-03T04:15:39.988Z,70.20
2018-08-03T04:18:16.209Z,70.26
2018-08-03T04:20:44.264Z,70.11
2018-08-03T04:23:12.286Z,69.68
2018-08-03T04:25:40.422Z,69.19
2018-08-03T04:28:08.753Z,68.92
2018-08-03T04:30:37.367Z,68.87
2018-08-03T04:33:05.912Z,69.87
2018-08-03T04:35:34.750Z,69.08
2018-08-03T04:38:04.044Z,68.89
2018-08-03T04:40:33.595Z,68.43
2018-08-03T04:43:03.097Z,68.39
2018-08-03T04:45:32.241Z,67.80
2018-08-03T04:48:00.361Z,67.40
2018-08-03T04:50:28.453Z,65.04
2018-08-03T04:52:56.471Z,63.04
2018-08-03T04:55:24.511Z,61.74
2018-08-03T04:57:52.651Z,60.21
2018-08-03T05:00:20.695Z,58.34
2018-08-03T05:02:48.724Z,55.63
2018-08-03T05:05:16.817Z,54.52
2018-08-03T05:07:44.885Z,54.87
2018-08-03T05:10:12.934Z,52.15
2018-08-03T05:12:40.948Z,52.42
2018-08-03T05:15:09.396Z,51.80
2018-08-03T05:17:37.705Z,51.13
2018-08-03T05:20:05.936Z,48.95
2018-08-03T05:22:33.996Z,48.42
2018-08-03T05:25:02.030Z,47.74
2018-08-03T05:27:30.079Z,45.59
2018-08-03T05:29:58.607Z,45.12
2018-08-03T05:32:27.459Z,44.36
2018-08-03T05:34:55.519Z,44.45
2018-08-03T05:37:23.603Z,44.54
2018-08-03T05:39:59.617Z,45.22
2018-08-03T05:42:27.704Z,43.27
2018-08-03T05:44:55.760Z,43.20
2018-08-03T05:47:23.796Z,43.06
2018-08-03T05:49:51.852Z,42.87
2018-08-03T05:52:19.971Z,42.63
2018-08-03T05:54:47.955Z,42.41
2018-08-03T05:57:16.078Z,40.92
2018-08-03T05:59:44.659Z,41.64
2018-08-03T06:02:12.995Z,39.75
2018-08-03T06:04:41.655Z,40.33
2018-08-03T06:07:10.034Z,39.66
2018-08-03T06:09:38.625Z,39.14
2018-08-03T06:12:07.233Z,38.30
2018-08-03T06:14:35.997Z,38.38
2018-08-03T06:17:05.055Z,37.46
2018-08-03T06:19:34.320Z,36.88
2018-08-03T06:22:02.944Z,35.72
2018-08-03T06:24:31.900Z,36.15
2018-08-03T06:27:00.011Z,35.38
2018-08-03T06:29:28.177Z,35.38
2018-08-03T06:31:56.152Z,36.10
2018-08-03T06:34:24.214Z,35.11
2018-08-03T06:36:52.272Z,34.93
2018-08-03T06:39:20.348Z,35.23
2018-08-03T06:41:48.440Z,33.89
2018-08-03T06:44:16.492Z,34.85
2018-08-03T06:46:44.567Z,34.59
2018-08-03T06:49:12.611Z,33.49
2018-08-03T06:51:40.677Z,33.05
2018-08-03T06:54:08.850Z,33.67
2018-08-03T06:56:36.903Z,33.27
2018-08-03T06:59:04.952Z,32.31
2018-08-03T07:01:33.001Z,32.04
2018-08-03T07:04:01.131Z,31.75
2018-08-03T07:06:29.194Z,32.46
2018-08-03T07:08:57.252Z,32.32
2018-08-03T07:11:25.324Z,32.27
2018-08-03T07:13:53.427Z,32.43
2018-08-03T07:16:21.503Z,31.32
2018-08-03T07:18:49.544Z,31.94
2018-08-03T07:21:24.327Z,31.89
2018-08-03T07:23:52.399Z,31.43
2018-08-03T07:26:20.454Z,31.59
2018-08-03T07:28:48.632Z,31.68
2018-08-03T07:31:16.767Z,31.29
2018-08-03T07:33:44.899Z,31.11
2018-08-03T07:36:13.008Z,31.24
2018-08-03T07:38:41.068Z,30.65
2018-08-03T07:41:09.179Z,30.85
2018-08-03T07:43:37.294Z,31.19
2018-08-03T07:46:05.373Z,30.86
2018-08-03T07:48:33.387Z,31.10
2018-08-03T07:51:01.680Z,31.02
2018-08-03T07:53:29.831Z,30.72
2018-08-03T07:55:58.052Z,30.34
2018-08-03T07:58:26.143Z,29.86
2018-08-03T08:00:54.187Z,30.53
2018-08-03T08:03:22.256Z,30.76
2018-08-03T08:05:50.398Z,30.98
2018-08-03T08:08:18.474Z,30.43
2018-08-03T08:10:46.507Z,30.69
2018-08-03T08:13:14.745Z,30.43
2018-08-03T08:15:42.804Z,30.48
2018-08-03T08:18:10.859Z,30.38
2018-08-03T08:20:39.460Z,30.47
2018-08-03T08:23:08.189Z,30.78
2018-08-03T08:25:36.911Z,30.34
2018-08-03T08:28:06.713Z,30.11
2018-08-03T08:30:35.972Z,30.55
2018-08-03T08:33:04.033Z,30.96
2018-08-03T08:35:32.104Z,30.47
2018-08-03T08:38:00.176Z,30.16
2018-08-03T08:40:28.596Z,29.67
2018-08-03T08:42:56.687Z,29.11
2018-08-03T08:45:24.727Z,30.62
2018-08-03T08:47:52.772Z,29.92
2018-08-03T08:50:20.830Z,30.64
2018-08-03T08:52:48.867Z,30.15
2018-08-03T08:55:16.943Z,30.64
2018-08-03T08:57:44.992Z,30.66
2018-08-03T09:00:13.027Z,30.27
2018-08-03T09:02:41.086Z,30.89
2018-08-03T09:05:09.137Z,32.27
2018-08-03T09:07:37.267Z,31.65
2018-08-03T09:10:05.439Z,32.14
2018-08-03T09:12:33.482Z,30.94
2018-08-03T09:15:01.523Z,31.42
2018-08-03T09:17:29.564Z,30.08
2018-08-03T09:19:57.649Z,31.10
2018-08-03T09:22:25.687Z,30.50
2018-08-03T09:24:53.703Z,30.02
2018-08-03T09:27:21.749Z,30.32
2018-08-03T09:29:49.767Z,30.54
2018-08-03T09:32:17.835Z,29.81
2018-08-03T09:34:45.899Z,29.05
2018-08-03T09:37:13.946Z,28.17
2018-08-03T09:39:41.992Z,27.50
2018-08-03T09:42:10.095Z,28.02
2018-08-03T09:44:38.136Z,29.32
2018-08-03T09:47:06.176Z,28.83
2018-08-03T09:49:34.215Z,30.19
2018-08-03T09:52:02.263Z,30.08
2018-08-03T09:54:30.347Z,28.10
2018-08-03T09:56:58.410Z,27.09
2018-08-03T09:59:26.454Z,28.22
2018-08-03T10:01:54.524Z,28.91
2018-08-03T10:04:22.552Z,28.01
2018-08-03T10:06:50.592Z,28.20
2018-08-03T10:09:18.627Z,28.86
2018-08-03T10:11:46.767Z,29.57
2018-08-03T10:14:15.207Z,29.23
2018-08-03T10:16:43.379Z,29.43
2018-08-03T10:19:11.552Z,29.88
2018-08-03T10:21:39.583Z,29.87
2018-08-03T10:24:08.114Z,30.09
2018-08-03T10:26:36.832Z,29.52
2018-08-03T10:29:05.947Z,30.02
2018-08-03T10:31:35.534Z,30.59
2018-08-03T10:34:05.590Z,29.96
2018-08-03T10:36:34.920Z,30.48
2018-08-03T10:39:05.613Z,29.57
2018-08-03T10:41:34.928Z,29.98
2018-08-03T10:44:04.359Z,30.25
2018-08-03T10:46:33.424Z,30.22
2018-08-03T10:49:01.879Z,30.42
2018-08-03T10:51:29.928Z,30.56
2018-08-03T10:53:57.983Z,30.52
2018-08-03T10:56:26.094Z,31.19
2018-08-03T10:58:54.113Z,30.93
2018-08-03T11:01:22.236Z,30.45
2018-08-03T11:03:50.214Z,31.26
2018-08-03T11:06:18.279Z,31.32
2018-08-03T11:08:46.358Z,30.70
2018-08-03T11:11:14.495Z,30.66
2018-08-03T11:13:42.704Z,31.07
2018-08-03T11:16:10.665Z,31.70
2018-08-03T11:18:38.724Z,30.80
2018-08-03T11:21:06.872Z,31.96
2018-08-03T11:23:34.898Z,31.15
2018-08-03T11:26:02.960Z,31.06
2018-08-03T11:28:31.035Z,31.39
2018-08-03T11:30:59.143Z,30.96
2018-08-03T11:33:27.199Z,31.31
2018-08-03T11:35:55.291Z,30.42
2018-08-03T11:38:23.377Z,30.72
2018-08-03T11:40:51.486Z,30.10
2018-08-03T11:43:19.740Z,30.21
2018-08-03T11:45:47.775Z,30.67
2018-08-03T11:48:16.861Z,31.52
2018-08-03T11:50:45.524Z,31.39
2018-08-03T11:53:14.599Z,31.98
2018-08-03T11:55:43.837Z,31.35
2018-08-03T11:58:13.111Z,32.42
2018-08-03T12:00:42.223Z,31.83
2018-08-03T12:03:11.485Z,32.74
2018-08-03T12:05:40.599Z,32.18
2018-08-03T12:08:09.929Z,32.05
2018-08-03T12:10:39.569Z,33.03
2018-08-03T12:13:10.203Z,32.13
2018-08-03T12:15:39.686Z,31.31
2018-08-03T12:18:08.764Z,31.25
2018-08-03T12:20:38.251Z,31.17
2018-08-03T12:23:07.581Z,31.36
2018-08-03T12:25:35.760Z,32.35
2018-08-03T12:28:03.827Z,31.70
2018-08-03T12:30:32.067Z,31.58
2018-08-03T12:33:00.478Z,30.99
2018-08-03T12:35:28.646Z,31.14
2018-08-03T12:37:56.718Z,30.72
2018-08-03T12:40:24.779Z,29.13
2018-08-03T12:42:52.815Z,29.52
2018-08-03T12:45:20.904Z,29.67
2018-08-03T12:47:48.924Z,29.17
2018-08-03T12:50:17.296Z,29.42
2018-08-03T12:52:46.201Z,29.51
2018-08-03T12:55:15.416Z,30.08
2018-08-03T12:57:44.496Z,29.42
2018-08-03T13:00:13.327Z,29.64
2018-08-03T13:02:42.081Z,29.34
2018-08-03T13:05:16.832Z,29.48
2018-08-03T13:07:44.968Z,29.17
2018-08-03T13:10:12.918Z,28.99
2018-08-03T13:12:40.974Z,28.26
2018-08-03T13:15:09.664Z,29.13
2018-08-03T13:17:37.716Z,28.26
2018-08-03T13:20:05.950Z,28.13
2018-08-03T13:22:34.022Z,28.32
2018-08-03T13:25:02.076Z,28.78
2018-08-03T13:27:30.241Z,28.35
2018-08-03T13:29:58.704Z,28.69
2018-08-03T13:32:26.776Z,28.42
2018-08-03T13:34:54.818Z,28.45
2018-08-03T13:37:22.912Z,28.79
2018-08-03T13:39:50.968Z,28.83
2018-08-03T13:42:19.024Z,28.91
2018-08-03T13:44:47.052Z,28.74
2018-08-03T13:47:15.096Z,28.90
2018-08-03T13:49:43.151Z,28.08
2018-08-03T13:52:11.194Z,28.25
2018-08-03T13:54:39.239Z,27.98
2018-08-03T13:57:07.265Z,28.46
2018-08-03T13:59:35.328Z,28.34
2018-08-03T14:02:17.303Z,28.75
2018-08-03T14:04:45.920Z,28.40
2018-08-03T14:07:14.006Z,27.91
2018-08-03T14:09:42.040Z,28.42
2018-08-03T14:12:10.273Z,28.03
2018-08-03T14:14:38.863Z,28.34
2018-08-03T14:17:07.019Z,28.34
2018-08-03T14:19:35.082Z,27.94
2018-08-03T14:22:03.157Z,28.03
2018-08-03T14:24:31.177Z,27.79
2018-08-03T14:26:59.208Z,26.75
2018-08-03T14:29:27.243Z,27.48
2018-08-03T14:31:55.332Z,27.26
2018-08-03T14:34:23.380Z,27.53
2018-08-03T14:36:51.428Z,27.28
2018-08-03T14:39:19.509Z,27.50
2018-08-03T14:41:47.900Z,27.47
2018-08-03T14:44:15.939Z,27.15
2018-08-03T14:46:43.983Z,27.22
2018-08-03T14:49:12.075Z,27.37
2018-08-03T14:51:40.226Z,27.53
2018-08-03T14:54:08.359Z,28.00
2018-08-03T14:56:36.453Z,27.71
2018-08-03T14:59:04.455Z,27.26
2018-08-03T15:01:32.504Z,27.22
2018-08-03T15:04:00.535Z,27.32
2018-08-03T15:06:28.587Z,27.01
2018-08-03T15:08:56.639Z,26.97
2018-08-03T15:11:24.686Z,27.15
2018-08-03T15:13:52.742Z,26.42
2018-08-03T15:16:20.765Z,25.97
2018-08-03T15:18:48.824Z,25.77
2018-08-03T15:21:16.855Z,26.48
2018-08-03T15:23:45.035Z,26.72
2018-08-03T15:26:13.075Z,26.25
2018-08-03T15:28:41.113Z,26.58
2018-08-03T15:31:09.168Z,26.51
2018-08-03T15:33:37.203Z,27.09
2018-08-03T15:36:05.252Z,27.23
2018-08-03T15:38:33.278Z,25.78
2018-08-03T15:41:01.314Z,26.31
2018-08-03T15:43:29.335Z,25.93
2018-08-03T15:45:57.380Z,25.88
2018-08-03T15:48:25.432Z,25.85
2018-08-03T15:50:53.480Z,26.46
2018-08-03T15:53:21.531Z,26.77
2018-08-03T15:55:49.560Z,26.82
2018-08-03T15:58:17.648Z,26.25
2018-08-03T16:00:45.680Z,26.94
2018-08-03T16:03:13.743Z,26.91
2018-08-03T16:05:41.763Z,26.72
2018-08-03T16:08:09.852Z,26.40
2018-08-03T16:10:37.871Z,25.87
2018-08-03T16:13:06.384Z,26.24
2018-08-03T16:15:34.480Z,26.12
2018-08-03T16:18:02.547Z,26.24
2018-08-03T16:20:30.601Z,26.40
2018-08-03T16:22:58.635Z,27.05
2018-08-03T16:25:26.706Z,26.75
2018-08-03T16:27:54.754Z,26.74
2018-08-03T16:30:22.808Z,26.61
2018-08-03T16:32:50.840Z,27.25
2018-08-03T16:35:18.929Z,26.69
2018-08-03T16:37:46.967Z,26.83
2018-08-03T16:40:15.035Z,26.52
2018-08-03T16:42:43.087Z,26.79
2018-08-03T16:45:11.106Z,27.37
2018-08-03T16:47:39.185Z,27.16
2018-08-03T16:50:07.659Z,27.93
2018-08-03T16:52:35.693Z,27.61
2018-08-03T16:55:03.776Z,28.12
2018-08-03T16:57:31.834Z,28.69
2018-08-03T16:59:59.848Z,27.46
2018-08-03T17:02:27.907Z,27.73
2018-08-03T17:04:55.951Z,27.34
2018-08-03T17:07:23.981Z,27.34
2018-08-03T17:09:52.151Z,27.62
2018-08-03T17:12:20.179Z,27.79
2018-08-03T17:14:48.269Z,27.53
2018-08-03T17:17:16.343Z,27.95
2018-08-03T17:19:44.390Z,28.03
2018-08-03T17:22:12.703Z,28.39
2018-08-03T17:24:40.775Z,27.29
2018-08-03T17:27:08.822Z,27.84
2018-08-03T17:29:36.878Z,28.33
2018-08-03T17:32:04.989Z,28.00
2018-08-03T17:34:33.019Z,28.73
2018-08-03T17:37:01.169Z,28.34
2018-08-03T17:39:29.095Z,28.45
2018-08-03T17:41:57.131Z,28.95
2018-08-03T17:44:25.549Z,29.35
2018-08-03T17:46:53.621Z,28.99
2018-08-03T17:49:21.648Z,29.57
2018-08-03T17:51:49.688Z,29.38
2018-08-03T17:54:18.049Z,30.31
2018-08-03T17:56:46.067Z,30.23
2018-08-03T17:59:15.072Z,30.50
2018-08-03T18:01:43.700Z,30.55
2018-08-03T18:04:12.415Z,30.92
2018-08-03T18:06:40.896Z,30.69
2018-08-03T18:09:09.676Z,30.04
2018-08-03T18:11:38.836Z,30.58
2018-08-03T18:14:07.719Z,31.57
2018-08-03T18:16:35.994Z,31.94
2018-08-03T18:19:04.262Z,31.18
2018-08-03T18:21:32.337Z,31.95
2018-08-03T18:24:00.488Z,31.58
2018-08-03T18:26:28.514Z,32.63
2018-08-03T18:28:56.611Z,32.88
2018-08-03T18:31:24.591Z,33.70
2018-08-03T18:33:52.619Z,33.67
2018-08-03T18:36:20.680Z,35.82
2018-08-03T18:38:48.833Z,36.54
2018-08-03T18:41:16.919Z,37.59
2018-08-03T18:43:44.959Z,36.52
2018-08-03T18:46:13.087Z,38.29
2018-08-03T18:48:41.063Z,38.99
2018-08-03T18:51:09.234Z,39.34
2018-08-03T18:53:37.631Z,40.14
2018-08-03T18:56:05.775Z,39.12
2018-08-03T18:58:33.816Z,39.40
2018-08-03T19:01:01.927Z,40.71
2018-08-03T19:03:30.287Z,39.90
2018-08-03T19:05:58.358Z,40.55
2018-08-03T19:08:26.423Z,41.85
2018-08-03T19:10:54.467Z,41.87
2018-08-03T19:13:22.524Z,41.35
2018-08-03T19:15:50.584Z,41.90
2018-08-03T19:18:18.628Z,41.76
2018-08-03T19:20:46.767Z,41.67
2018-08-03T19:23:15.354Z,42.30
2018-08-03T19:25:45.264Z,42.69
2018-08-03T19:28:13.949Z,42.50
2018-08-03T19:30:42.504Z,42.95
2018-08-03T19:33:11.648Z,43.13
2018-08-03T19:35:42.302Z,43.65
2018-08-03T19:38:11.100Z,43.80
2018-08-03T19:40:39.964Z,43.20
2018-08-03T19:43:10.236Z,43.04
2018-08-03T19:45:39.207Z,43.74
2018-08-03T19:48:08.655Z,43.41
2018-08-03T19:50:38.626Z,43.87
2018-08-03T19:53:10.283Z,44.78
2018-08-03T19:55:40.179Z,44.96
2018-08-03T19:58:09.658Z,44.56
2018-08-03T20:00:38.744Z,44.85
2018-08-03T20:03:08.117Z,44.36
2018-08-03T20:05:39.446Z,44.34
2018-08-03T20:08:08.787Z,45.33
2018-08-03T20:10:38.571Z,45.15
2018-08-03T20:13:08.058Z,45.00
2018-08-03T20:15:38.303Z,44.91
2018-08-03T20:18:08.500Z,45.37
2018-08-03T20:20:37.512Z,45.16
2018-08-03T20:23:06.675Z,44.97
2018-08-03T20:25:36.520Z,44.59
2018-08-03T20:28:05.396Z,45.55
2018-08-03T20:30:34.726Z,45.33
2018-08-03T20:33:04.170Z,45.46
2018-08-03T20:35:33.489Z,45.10
2018-08-03T20:38:02.204Z,44.49
2018-08-03T20:40:30.611Z,44.94
2018-08-03T20:42:58.748Z,45.07
2018-08-03T20:45:26.799Z,44.93
2018-08-03T20:47:54.850Z,44.90
2018-08-03T20:50:22.904Z,45.47
2018-08-03T20:52:50.986Z,45.57
2018-08-03T20:55:19.257Z,46.46
2018-08-03T20:57:47.412Z,45.28
2018-08-03T21:00:15.481Z,46.01
2018-08-03T21:02:43.531Z,45.88
2018-08-03T21:05:11.581Z,46.18
2018-08-03T21:07:39.607Z,46.29
2018-08-03T21:10:07.647Z,46.90
2018-08-03T21:12:35.707Z,46.10
2018-08-03T21:15:04.100Z,46.69
2018-08-03T21:17:32.131Z,46.08
2018-08-03T21:20:00.176Z,46.59
2018-08-03T21:22:28.236Z,46.79
2018-08-03T21:24:56.275Z,46.14
2018-08-03T21:27:24.688Z,46.40
2018-08-03T21:29:53.519Z,46.69
2018-08-03T21:32:21.560Z,45.95
2018-08-03T21:34:49.623Z,45.77
2018-08-03T21:37:17.910Z,46.05
2018-08-03T21:39:46.340Z,46.69
2018-08-03T21:42:15.145Z,45.58
2018-08-03T21:44:44.004Z,46.61
2018-08-03T21:47:12.287Z,46.19
2018-08-03T21:49:40.304Z,45.91
2018-08-03T21:52:08.338Z,45.92
2018-08-03T21:54:36.372Z,45.78
2018-08-03T21:57:04.432Z,45.57
2018-08-03T21:59:32.474Z,45.27
2018-08-03T22:02:00.596Z,44.80
2018-08-03T22:04:28.606Z,45.05
2018-08-03T22:06:56.652Z,44.18
2018-08-03T22:09:24.719Z,44.28
2018-08-03T22:11:52.768Z,44.42
2018-08-03T22:14:20.805Z,43.60
2018-08-03T22:16:48.823Z,43.64
2018-08-03T22:19:17.139Z,44.38
2018-08-03T22:21:45.178Z,44.08
2018-08-03T22:24:14.061Z,44.05
2018-08-03T22:26:42.786Z,45.02
2018-08-03T22:29:11.592Z,44.45
2018-08-03T22:31:40.589Z,45.18
2018-08-03T22:34:08.655Z,44.88
2018-08-03T22:36:36.675Z,44.75
2018-08-03T22:39:06.735Z,45.07
2018-08-03T22:41:34.751Z,44.96
2018-08-03T22:44:02.819Z,45.56
2018-08-03T22:46:31.120Z,44.98
2018-08-03T22:48:59.527Z,45.76
2018-08-03T22:51:27.555Z,45.84
2018-08-03T22:53:55.669Z,45.85
2018-08-03T22:56:23.943Z,45.91
2018-08-03T22:58:52.251Z,45.93
2018-08-03T23:01:20.327Z,45.51
2018-08-03T23:03:48.527Z,46.02
2018-08-03T23:06:17.059Z,45.68
2018-08-03T23:08:45.587Z,46.21
2018-08-03T23:11:14.275Z,46.69
2018-08-03T23:13:42.622Z,45.98
2018-08-03T23:16:10.660Z,46.78
2018-08-03T23:18:38.679Z,47.22
2018-08-03T23:21:06.720Z,46.70
2018-08-03T23:23:34.759Z,46.62
2018-08-03T23:26:02.795Z,46.98
2018-08-03T23:28:31.776Z,47.26
2018-08-03T23:30:59.817Z,48.30
2018-08-03T23:33:27.887Z,47.81
2018-08-03T23:35:55.940Z,47.88
2018-08-03T23:38:23.975Z,48.69
2018-08-03T23:40:52.015Z,48.91
2018-08-03T23:43:20.046Z,49.14
2018-08-03T23:45:48.571Z,49.31
2018-08-03T23:48:17.363Z,49.41
2018-08-03T23:50:45.942Z,49.51
2018-08-03T23:53:14.706Z,49.71
2018-08-03T23:55:43.887Z,50.48
2018-08-03T23:58:12.736Z,49.54
